sensor_id;sensor_type;location;lat;lon;timestamp;temperature;humidity
37896;DHT22;23733;53.254;10.430;2022-07-04T01:40:59;19.20;99.90
37896;DHT22;23733;53.254;10.430;2022-07-04T01:43:25;18.20;99.90
37896;DHT22;23733;53.254;10.430;2022-07-04T01:45:51;18.10;99.90
37896;DHT22;23733;53.254;10.430;2022-07-04T01:48:17;18.10;99.90
37896;DHT22;23733;53.254;10.430;2022-07-04T01:50:43;18.10;99.90
37896;DHT22;23733;53.254;10.430;2022-07-04T01:53:09;18.00;99.90
37896;DHT22;23733;53.254;10.430;2022-07-04T01:55:35;18.10;99.90
37896;DHT22;23733;53.254;10.430;2022-07-04T01:58:02;18.00;99.90
37896;DHT22;23733;53.254;10.430;2022-07-04T02:08:06;18.00;99.90
37896;DHT22;23733;53.254;10.430;2022-07-04T02:10:33;17.90;99.90
37896;DHT22;23733;53.254;10.430;2022-07-04T02:12:59;17.90;99.90
37896;DHT22;23733;53.254;10.430;2022-07-04T02:15:38;17.80;99.90
37896;DHT22;23733;53.254;10.430;2022-07-04T02:18:06;17.70;99.90
37896;DHT22;23733;53.254;10.430;2022-07-04T02:20:33;17.70;99.90
37896;DHT22;23733;53.254;10.430;2022-07-04T02:23:00;17.70;99.90
37896;DHT22;23733;53.254;10.430;2022-07-04T02:25:27;17.70;99.90
37896;DHT22;23733;53.254;10.430;2022-07-04T02:27:52;17.60;99.90
37896;DHT22;23733;53.254;10.430;2022-07-04T02:30:18;17.60;99.90
37896;DHT22;23733;53.254;10.430;2022-07-04T02:32:44;17.60;99.90
37896;DHT22;23733;53.254;10.430;2022-07-04T02:52:17;17.50;99.90
37896;DHT22;23733;53.254;10.430;2022-07-04T02:54:43;17.60;99.90
37896;DHT22;23733;53.254;10.430;2022-07-04T02:57:11;17.50;99.90
37896;DHT22;23733;53.254;10.430;2022-07-04T02:59:37;17.50;99.90
37896;DHT22;23733;53.254;10.430;2022-07-04T03:02:04;17.50;99.90
37896;DHT22;23733;53.254;10.430;2022-07-04T03:04:30;17.50;99.90
37896;DHT22;23733;53.254;10.430;2022-07-04T03:06:56;17.50;99.90
37896;DHT22;23733;53.254;10.430;2022-07-04T03:09:22;17.50;99.90
37896;DHT22;23733;53.254;10.430;2022-07-04T03:11:48;17.40;99.90
37896;DHT22;23733;53.254;10.430;2022-07-04T04:32:41;17.40;99.90
37896;DHT22;23733;53.254;10.430;2022-07-04T04:35:07;17.30;99.90
37896;DHT22;23733;53.254;10.430;2022-07-04T04:37:33;17.30;99.90
37896;DHT22;23733;53.254;10.430;2022-07-04T04:39:59;17.30;99.90
37896;DHT22;23733;53.254;10.430;2022-07-04T04:42:25;17.30;99.90
37896;DHT22;23733;53.254;10.430;2022-07-04T04:44:51;17.20;99.90
37896;DHT22;23733;53.254;10.430;2022-07-04T04:47:18;17.20;99.90
37896;DHT22;23733;53.254;10.430;2022-07-04T04:49:44;17.30;99.90
37896;DHT22;23733;53.254;10.430;2022-07-04T04:52:10;17.30;99.90
37896;DHT22;23733;53.254;10.430;2022-07-04T04:54:37;17.40;99.90
37896;DHT22;23733;53.254;10.430;2022-07-04T04:57:03;17.50;99.90
37896;DHT22;23733;53.254;10.430;2022-07-04T04:59:30;17.50;99.90
37896;DHT22;23733;53.254;10.430;2022-07-04T05:01:59;17.60;99.90
37896;DHT22;23733;53.254;10.430;2022-07-04T05:04:25;17.70;99.90
37896;DHT22;23733;53.254;10.430;2022-07-04T05:06:51;17.70;99.90
37896;DHT22;23733;53.254;10.430;2022-07-04T05:09:18;17.80;99.90
37896;DHT22;23733;53.254;10.430;2022-07-04T05:11:46;17.80;99.90
37896;DHT22;23733;53.254;10.430;2022-07-04T05:14:13;17.80;99.90
37896;DHT22;23733;53.254;10.430;2022-07-04T05:16:39;17.90;99.90
37896;DHT22;23733;53.254;10.430;2022-07-04T05:19:05;18.10;99.90
37896;DHT22;23733;53.254;10.430;2022-07-04T05:21:31;18.10;99.90
37896;DHT22;23733;53.254;10.430;2022-07-04T05:23:57;18.20;99.90
37896;DHT22;23733;53.254;10.430;2022-07-04T05:26:24;18.30;99.90
37896;DHT22;23733;53.254;10.430;2022-07-04T05:28:50;18.40;99.90
37896;DHT22;23733;53.254;10.430;2022-07-04T05:31:16;18.20;99.90
37896;DHT22;23733;53.254;10.430;2022-07-04T05:33:42;18.20;99.90
37896;DHT22;23733;53.254;10.430;2022-07-04T05:36:08;18.40;99.90
37896;DHT22;23733;53.254;10.430;2022-07-04T05:38:34;18.60;99.90
37896;DHT22;23733;53.254;10.430;2022-07-04T05:41:01;18.70;99.90
37896;DHT22;23733;53.254;10.430;2022-07-04T05:43:27;18.80;99.90
37896;DHT22;23733;53.254;10.430;2022-07-04T05:45:53;18.80;99.90
37896;DHT22;23733;53.254;10.430;2022-07-04T05:48:19;18.90;99.90
37896;DHT22;23733;53.254;10.430;2022-07-04T05:50:45;19.10;99.90
37896;DHT22;23733;53.254;10.430;2022-07-04T05:53:12;19.10;99.90
37896;DHT22;23733;53.254;10.430;2022-07-04T05:55:38;19.10;99.90
37896;DHT22;23733;53.254;10.430;2022-07-04T05:58:04;19.00;99.90
37896;DHT22;23733;53.254;10.430;2022-07-04T06:00:30;19.00;99.90
37896;DHT22;23733;53.254;10.430;2022-07-04T06:02:56;19.10;99.90
37896;DHT22;23733;53.254;10.430;2022-07-04T06:05:22;19.00;99.90
37896;DHT22;23733;53.254;10.430;2022-07-04T06:07:48;19.00;99.90
37896;DHT22;23733;53.254;10.430;2022-07-04T06:10:14;19.10;99.90
37896;DHT22;23733;53.254;10.430;2022-07-04T06:12:41;19.20;99.90
37896;DHT22;23733;53.254;10.430;2022-07-04T06:15:07;19.20;99.90
37896;DHT22;23733;53.254;10.430;2022-07-04T06:17:36;19.30;99.90
37896;DHT22;23733;53.254;10.430;2022-07-04T06:20:03;19.40;99.90
37896;DHT22;23733;53.254;10.430;2022-07-04T06:22:45;19.40;99.90
37896;DHT22;23733;53.254;10.430;2022-07-04T06:25:16;19.50;99.90
37896;DHT22;23733;53.254;10.430;2022-07-04T06:27:43;19.40;99.90
37896;DHT22;23733;53.254;10.430;2022-07-04T06:30:10;19.50;99.90
37896;DHT22;23733;53.254;10.430;2022-07-04T06:35:17;19.60;99.90
37896;DHT22;23733;53.254;10.430;2022-07-04T06:38:01;19.80;99.90
37896;DHT22;23733;53.254;10.430;2022-07-04T06:40:27;20.00;99.90
37896;DHT22;23733;53.254;10.430;2022-07-04T06:42:53;20.00;99.90
37896;DHT22;23733;53.254;10.430;2022-07-04T06:45:19;20.00;99.90
37896;DHT22;23733;53.254;10.430;2022-07-04T06:47:45;19.90;99.90
37896;DHT22;23733;53.254;10.430;2022-07-04T06:50:12;19.90;99.90
37896;DHT22;23733;53.254;10.430;2022-07-04T06:52:39;20.10;99.90
37896;DHT22;23733;53.254;10.430;2022-07-04T06:55:06;20.10;99.90
37896;DHT22;23733;53.254;10.430;2022-07-04T06:57:32;20.20;99.90
37896;DHT22;23733;53.254;10.430;2022-07-04T06:59:58;20.10;99.90
37896;DHT22;23733;53.254;10.430;2022-07-04T07:02:24;20.10;99.90
37896;DHT22;23733;53.254;10.430;2022-07-04T07:04:50;20.20;99.90
37896;DHT22;23733;53.254;10.430;2022-07-04T07:07:16;20.30;99.90
37896;DHT22;23733;53.254;10.430;2022-07-04T07:09:42;20.30;99.90
37896;DHT22;23733;53.254;10.430;2022-07-04T07:12:08;20.00;99.90
37896;DHT22;23733;53.254;10.430;2022-07-04T07:14:35;20.00;99.90
37896;DHT22;23733;53.254;10.430;2022-07-04T07:17:01;19.90;99.90
37896;DHT22;23733;53.254;10.430;2022-07-04T07:19:28;20.00;99.90
37896;DHT22;23733;53.254;10.430;2022-07-04T07:21:54;20.10;99.90
37896;DHT22;23733;53.254;10.430;2022-07-04T07:24:20;20.30;99.90
37896;DHT22;23733;53.254;10.430;2022-07-04T07:26:46;20.20;99.90
37896;DHT22;23733;53.254;10.430;2022-07-04T07:29:12;20.20;99.90
37896;DHT22;23733;53.254;10.430;2022-07-04T07:31:38;20.30;99.90
37896;DHT22;23733;53.254;10.430;2022-07-04T07:34:04;20.40;99.90
37896;DHT22;23733;53.254;10.430;2022-07-04T07:36:30;20.50;99.90
37896;DHT22;23733;53.254;10.430;2022-07-04T07:38:56;20.70;99.90
37896;DHT22;23733;53.254;10.430;2022-07-04T07:41:22;20.70;99.90
37896;DHT22;23733;53.254;10.430;2022-07-04T07:43:48;20.70;99.90
37896;DHT22;23733;53.254;10.430;2022-07-04T07:46:14;20.70;99.90
37896;DHT22;23733;53.254;10.430;2022-07-04T07:48:40;20.70;99.90
37896;DHT22;23733;53.254;10.430;2022-07-04T07:51:06;20.50;99.90
37896;DHT22;23733;53.254;10.430;2022-07-04T07:53:32;20.40;99.90
37896;DHT22;23733;53.254;10.430;2022-07-04T07:55:58;20.50;99.90
37896;DHT22;23733;53.254;10.430;2022-07-04T07:58:24;20.60;99.90
37896;DHT22;23733;53.254;10.430;2022-07-04T08:00:50;20.60;99.90
37896;DHT22;23733;53.254;10.430;2022-07-04T08:03:16;20.60;99.90
37896;DHT22;23733;53.254;10.430;2022-07-04T08:06:01;20.70;99.90
37896;DHT22;23733;53.254;10.430;2022-07-04T08:08:27;20.90;99.90
37896;DHT22;23733;53.254;10.430;2022-07-04T08:10:53;20.80;99.90
37896;DHT22;23733;53.254;10.430;2022-07-04T08:13:19;20.80;99.90
37896;DHT22;23733;53.254;10.430;2022-07-04T08:15:45;21.00;99.90
37896;DHT22;23733;53.254;10.430;2022-07-04T08:18:11;21.10;99.90
37896;DHT22;23733;53.254;10.430;2022-07-04T08:20:37;21.20;99.90
37896;DHT22;23733;53.254;10.430;2022-07-04T08:23:03;21.20;99.90
37896;DHT22;23733;53.254;10.430;2022-07-04T08:25:29;21.10;99.90
37896;DHT22;23733;53.254;10.430;2022-07-04T08:27:55;21.10;99.90
37896;DHT22;23733;53.254;10.430;2022-07-04T08:30:21;21.10;99.90
37896;DHT22;23733;53.254;10.430;2022-07-04T08:32:47;21.20;99.90
37896;DHT22;23733;53.254;10.430;2022-07-04T08:35:13;21.40;99.90
37896;DHT22;23733;53.254;10.430;2022-07-04T08:37:39;21.40;99.90
37896;DHT22;23733;53.254;10.430;2022-07-04T08:40:07;21.40;99.90
37896;DHT22;23733;53.254;10.430;2022-07-04T08:42:38;21.40;99.90
37896;DHT22;23733;53.254;10.430;2022-07-04T08:45:06;21.40;99.90
37896;DHT22;23733;53.254;10.430;2022-07-04T08:47:34;21.50;99.90
37896;DHT22;23733;53.254;10.430;2022-07-04T08:50:16;21.50;99.90
37896;DHT22;23733;53.254;10.430;2022-07-04T08:52:53;21.50;99.90
37896;DHT22;23733;53.254;10.430;2022-07-04T08:55:22;21.60;99.90
37896;DHT22;23733;53.254;10.430;2022-07-04T08:58:07;21.60;99.90
37896;DHT22;23733;53.254;10.430;2022-07-04T09:00:53;21.60;99.90
37896;DHT22;23733;53.254;10.430;2022-07-04T09:03:20;21.50;99.90
37896;DHT22;23733;53.254;10.430;2022-07-04T09:05:46;21.60;99.90
37896;DHT22;23733;53.254;10.430;2022-07-04T09:08:13;21.50;99.90
37896;DHT22;23733;53.254;10.430;2022-07-04T09:10:39;21.50;99.90
37896;DHT22;23733;53.254;10.430;2022-07-04T09:13:07;21.70;99.90
37896;DHT22;23733;53.254;10.430;2022-07-04T09:15:33;21.90;99.90
37896;DHT22;23733;53.254;10.430;2022-07-04T09:18:01;22.10;99.90
37896;DHT22;23733;53.254;10.430;2022-07-04T09:20:28;22.30;99.90
37896;DHT22;23733;53.254;10.430;2022-07-04T09:22:55;22.30;99.90
37896;DHT22;23733;53.254;10.430;2022-07-04T09:25:23;22.30;99.90
37896;DHT22;23733;53.254;10.430;2022-07-04T09:27:54;21.80;99.90
37896;DHT22;23733;53.254;10.430;2022-07-04T09:30:22;21.70;99.90
37896;DHT22;23733;53.254;10.430;2022-07-04T09:32:58;22.00;99.90
37896;DHT22;23733;53.254;10.430;2022-07-04T09:35:29;22.10;99.90
37896;DHT22;23733;53.254;10.430;2022-07-04T09:38:00;22.10;99.90
37896;DHT22;23733;53.254;10.430;2022-07-04T09:40:37;22.20;99.90
37896;DHT22;23733;53.254;10.430;2022-07-04T09:43:22;22.30;99.90
37896;DHT22;23733;53.254;10.430;2022-07-04T09:45:59;22.40;99.90
37896;DHT22;23733;53.254;10.430;2022-07-04T09:48:49;22.50;99.90
37896;DHT22;23733;53.254;10.430;2022-07-04T09:51:35;22.70;99.90
37896;DHT22;23733;53.254;10.430;2022-07-04T09:54:23;22.60;99.90
37896;DHT22;23733;53.254;10.430;2022-07-04T09:56:55;22.70;99.90
37896;DHT22;23733;53.254;10.430;2022-07-04T09:59:24;22.90;99.90
37896;DHT22;23733;53.254;10.430;2022-07-04T10:01:51;22.90;99.90
37896;DHT22;23733;53.254;10.430;2022-07-04T10:04:17;22.70;99.90
37896;DHT22;23733;53.254;10.430;2022-07-04T10:06:44;22.60;99.90
37896;DHT22;23733;53.254;10.430;2022-07-04T10:09:15;22.80;99.90
37896;DHT22;23733;53.254;10.430;2022-07-04T10:11:45;22.90;99.90
37896;DHT22;23733;53.254;10.430;2022-07-04T10:14:13;23.00;99.90
37896;DHT22;23733;53.254;10.430;2022-07-04T10:16:40;23.20;99.90
37896;DHT22;23733;53.254;10.430;2022-07-04T10:19:08;23.20;99.90
37896;DHT22;23733;53.254;10.430;2022-07-04T10:21:34;23.20;99.90
37896;DHT22;23733;53.254;10.430;2022-07-04T10:24:01;23.00;99.90
37896;DHT22;23733;53.254;10.430;2022-07-04T10:26:29;22.90;99.90
37896;DHT22;23733;53.254;10.430;2022-07-04T13:04:06;23.20;99.90
37896;DHT22;23733;53.254;10.430;2022-07-04T13:06:32;24.90;99.90
37896;DHT22;23733;53.254;10.430;2022-07-04T13:08:58;24.80;99.90
37896;DHT22;23733;53.254;10.430;2022-07-04T13:11:25;24.70;99.90
37896;DHT22;23733;53.254;10.430;2022-07-04T13:14:10;24.90;99.90
37896;DHT22;23733;53.254;10.430;2022-07-04T13:16:36;24.90;99.90
37896;DHT22;23733;53.254;10.430;2022-07-04T13:19:02;24.80;99.90
37896;DHT22;23733;53.254;10.430;2022-07-04T13:21:28;24.90;99.90
37896;DHT22;23733;53.254;10.430;2022-07-04T13:23:55;24.90;99.90
37896;DHT22;23733;53.254;10.430;2022-07-04T13:26:21;25.00;99.90
37896;DHT22;23733;53.254;10.430;2022-07-04T13:28:47;25.00;99.90
37896;DHT22;23733;53.254;10.430;2022-07-04T13:31:14;25.10;99.90
37896;DHT22;23733;53.254;10.430;2022-07-04T13:38:33;25.00;99.90
37896;DHT22;23733;53.254;10.430;2022-07-04T13:40:59;24.40;99.90
37896;DHT22;23733;53.254;10.430;2022-07-04T13:43:25;24.40;99.90
37896;DHT22;23733;53.254;10.430;2022-07-04T13:45:54;24.50;99.90
37896;DHT22;23733;53.254;10.430;2022-07-04T13:48:21;24.70;99.90
37896;DHT22;23733;53.254;10.430;2022-07-04T13:50:47;24.80;99.90
37896;DHT22;23733;53.254;10.430;2022-07-04T13:53:13;24.90;99.90
37896;DHT22;23733;53.254;10.430;2022-07-04T13:55:39;24.80;99.90
37896;DHT22;23733;53.254;10.430;2022-07-04T13:58:07;24.70;99.90
37896;DHT22;23733;53.254;10.430;2022-07-04T14:00:37;24.60;99.90
37896;DHT22;23733;53.254;10.430;2022-07-04T14:03:04;24.50;99.90
37896;DHT22;23733;53.254;10.430;2022-07-04T14:05:31;24.50;99.90
37896;DHT22;23733;53.254;10.430;2022-07-04T14:07:57;24.60;99.90
37896;DHT22;23733;53.254;10.430;2022-07-04T14:10:24;24.70;99.90
37896;DHT22;23733;53.254;10.430;2022-07-04T14:12:50;24.70;99.90
37896;DHT22;23733;53.254;10.430;2022-07-04T14:15:16;24.60;99.90
37896;DHT22;23733;53.254;10.430;2022-07-04T14:17:42;24.60;99.90
37896;DHT22;23733;53.254;10.430;2022-07-04T14:20:10;24.60;99.90
37896;DHT22;23733;53.254;10.430;2022-07-04T14:22:37;24.40;99.90
37896;DHT22;23733;53.254;10.430;2022-07-04T14:25:04;24.40;99.90
37896;DHT22;23733;53.254;10.430;2022-07-04T14:27:31;24.40;99.90
37896;DHT22;23733;53.254;10.430;2022-07-04T14:29:57;24.30;99.90
37896;DHT22;23733;53.254;10.430;2022-07-04T14:32:23;24.30;99.90
37896;DHT22;23733;53.254;10.430;2022-07-04T14:34:49;24.40;99.90
37896;DHT22;23733;53.254;10.430;2022-07-04T14:37:15;24.50;99.90
37896;DHT22;23733;53.254;10.430;2022-07-04T14:39:42;24.60;99.90
37896;DHT22;23733;53.254;10.430;2022-07-04T14:42:08;24.50;99.90
37896;DHT22;23733;53.254;10.430;2022-07-04T14:44:34;24.40;99.90
37896;DHT22;23733;53.254;10.430;2022-07-04T14:47:02;24.40;99.90
37896;DHT22;23733;53.254;10.430;2022-07-04T14:49:28;24.40;99.90
37896;DHT22;23733;53.254;10.430;2022-07-04T14:51:54;24.50;99.90
37896;DHT22;23733;53.254;10.430;2022-07-04T14:54:23;24.40;99.90
37896;DHT22;23733;53.254;10.430;2022-07-04T14:56:49;24.50;99.90
37896;DHT22;23733;53.254;10.430;2022-07-04T14:59:15;24.60;99.90
37896;DHT22;23733;53.254;10.430;2022-07-04T15:01:41;24.70;99.90
37896;DHT22;23733;53.254;10.430;2022-07-04T15:04:07;24.70;99.90
37896;DHT22;23733;53.254;10.430;2022-07-04T15:06:33;24.60;99.90
37896;DHT22;23733;53.254;10.430;2022-07-04T15:08:59;24.40;99.90
37896;DHT22;23733;53.254;10.430;2022-07-04T15:11:28;24.40;99.90
37896;DHT22;23733;53.254;10.430;2022-07-04T15:13:54;24.30;99.90
37896;DHT22;23733;53.254;10.430;2022-07-04T15:16:20;24.30;99.90
37896;DHT22;23733;53.254;10.430;2022-07-04T15:18:47;24.40;99.90
37896;DHT22;23733;53.254;10.430;2022-07-04T15:21:13;24.50;99.90
37896;DHT22;23733;53.254;10.430;2022-07-04T15:23:57;24.50;99.90
37896;DHT22;23733;53.254;10.430;2022-07-04T15:26:46;24.40;99.90
37896;DHT22;23733;53.254;10.430;2022-07-04T15:29:12;24.50;99.90
37896;DHT22;23733;53.254;10.430;2022-07-04T15:31:38;24.40;99.90
37896;DHT22;23733;53.254;10.430;2022-07-04T15:34:04;24.50;99.90
37896;DHT22;23733;53.254;10.430;2022-07-04T15:36:30;24.40;99.90
37896;DHT22;23733;53.254;10.430;2022-07-04T15:38:56;24.40;99.90
37896;DHT22;23733;53.254;10.430;2022-07-04T15:41:22;24.40;99.90
37896;DHT22;23733;53.254;10.430;2022-07-04T15:43:48;24.30;99.90
37896;DHT22;23733;53.254;10.430;2022-07-04T15:46:14;24.10;99.90
37896;DHT22;23733;53.254;10.430;2022-07-04T15:48:40;24.10;99.90
37896;DHT22;23733;53.254;10.430;2022-07-04T15:51:06;24.10;99.90
37896;DHT22;23733;53.254;10.430;2022-07-04T15:53:32;24.10;99.90
37896;DHT22;23733;53.254;10.430;2022-07-04T15:55:58;24.20;99.90
37896;DHT22;23733;53.254;10.430;2022-07-04T15:58:24;24.10;99.90
37896;DHT22;23733;53.254;10.430;2022-07-04T16:00:50;24.10;99.90
37896;DHT22;23733;53.254;10.430;2022-07-04T16:03:16;24.20;99.90
37896;DHT22;23733;53.254;10.430;2022-07-04T16:05:43;24.10;99.90
37896;DHT22;23733;53.254;10.430;2022-07-04T16:08:09;24.10;99.90
37896;DHT22;23733;53.254;10.430;2022-07-04T16:10:36;24.10;99.90
37896;DHT22;23733;53.254;10.430;2022-07-04T16:13:02;24.00;99.90
37896;DHT22;23733;53.254;10.430;2022-07-04T16:15:28;24.00;99.90
37896;DHT22;23733;53.254;10.430;2022-07-04T16:17:54;23.90;99.90
37896;DHT22;23733;53.254;10.430;2022-07-04T16:20:21;24.00;99.90
37896;DHT22;23733;53.254;10.430;2022-07-04T16:22:49;24.10;99.90
37896;DHT22;23733;53.254;10.430;2022-07-04T16:25:15;24.10;99.90
37896;DHT22;23733;53.254;10.430;2022-07-04T16:27:41;24.10;99.90
37896;DHT22;23733;53.254;10.430;2022-07-04T16:30:07;24.10;99.90
37896;DHT22;23733;53.254;10.430;2022-07-04T16:32:34;24.10;99.90
37896;DHT22;23733;53.254;10.430;2022-07-04T16:35:01;24.10;99.90
37896;DHT22;23733;53.254;10.430;2022-07-04T16:37:27;24.10;99.90
37896;DHT22;23733;53.254;10.430;2022-07-04T16:39:53;24.10;99.90
37896;DHT22;23733;53.254;10.430;2022-07-04T16:42:19;24.00;99.90
37896;DHT22;23733;53.254;10.430;2022-07-04T16:44:45;23.90;99.90
37896;DHT22;23733;53.254;10.430;2022-07-04T16:47:11;23.80;99.90
37896;DHT22;23733;53.254;10.430;2022-07-04T16:49:37;23.80;99.90
37896;DHT22;23733;53.254;10.430;2022-07-04T16:52:04;23.80;99.90
37896;DHT22;23733;53.254;10.430;2022-07-04T16:54:30;23.70;99.90
37896;DHT22;23733;53.254;10.430;2022-07-04T16:56:56;23.70;99.90
37896;DHT22;23733;53.254;10.430;2022-07-04T16:59:22;23.60;99.90
37896;DHT22;23733;53.254;10.430;2022-07-04T17:01:48;23.60;99.90
37896;DHT22;23733;53.254;10.430;2022-07-04T17:04:14;23.70;99.90
37896;DHT22;23733;53.254;10.430;2022-07-04T17:06:40;23.70;99.90
37896;DHT22;23733;53.254;10.430;2022-07-04T17:09:06;23.80;99.90
37896;DHT22;23733;53.254;10.430;2022-07-04T17:11:32;23.80;99.90
37896;DHT22;23733;53.254;10.430;2022-07-04T17:13:59;23.80;99.90
37896;DHT22;23733;53.254;10.430;2022-07-04T17:16:27;23.80;99.90
37896;DHT22;23733;53.254;10.430;2022-07-04T17:18:54;23.90;99.90
37896;DHT22;23733;53.254;10.430;2022-07-04T17:21:20;23.90;99.90
37896;DHT22;23733;53.254;10.430;2022-07-04T17:23:46;23.80;99.90
37896;DHT22;23733;53.254;10.430;2022-07-04T17:26:12;23.70;99.90
37896;DHT22;23733;53.254;10.430;2022-07-04T17:28:38;23.60;99.90
37896;DHT22;23733;53.254;10.430;2022-07-04T17:31:06;23.60;99.90
37896;DHT22;23733;53.254;10.430;2022-07-04T17:33:33;23.60;99.90
37896;DHT22;23733;53.254;10.430;2022-07-04T17:35:59;23.60;99.90
37896;DHT22;23733;53.254;10.430;2022-07-04T17:38:25;23.60;99.90
37896;DHT22;23733;53.254;10.430;2022-07-04T17:40:51;23.50;99.90
37896;DHT22;23733;53.254;10.430;2022-07-04T17:43:40;23.50;99.90
37896;DHT22;23733;53.254;10.430;2022-07-04T17:46:06;23.50;99.90
37896;DHT22;23733;53.254;10.430;2022-07-04T17:48:34;23.50;99.90
37896;DHT22;23733;53.254;10.430;2022-07-04T17:51:00;23.40;99.90
37896;DHT22;23733;53.254;10.430;2022-07-04T17:53:26;23.40;99.90
37896;DHT22;23733;53.254;10.430;2022-07-04T17:55:52;23.20;99.90
37896;DHT22;23733;53.254;10.430;2022-07-04T17:58:18;23.10;99.90
37896;DHT22;23733;53.254;10.430;2022-07-04T18:00:44;22.90;99.90
37896;DHT22;23733;53.254;10.430;2022-07-04T18:03:10;22.80;99.90
37896;DHT22;23733;53.254;10.430;2022-07-04T18:05:36;22.90;99.90
37896;DHT22;23733;53.254;10.430;2022-07-04T18:08:05;22.70;99.90
37896;DHT22;23733;53.254;10.430;2022-07-04T18:10:33;22.50;99.90
37896;DHT22;23733;53.254;10.430;2022-07-04T18:12:59;22.40;99.90
37896;DHT22;23733;53.254;10.430;2022-07-04T18:15:26;22.40;99.90
37896;DHT22;23733;53.254;10.430;2022-07-04T18:17:52;22.20;99.90
37896;DHT22;23733;53.254;10.430;2022-07-04T18:20:18;22.10;99.90
37896;DHT22;23733;53.254;10.430;2022-07-04T18:22:44;21.90;99.90
37896;DHT22;23733;53.254;10.430;2022-07-04T18:25:10;21.90;99.90
37896;DHT22;23733;53.254;10.430;2022-07-04T18:27:36;21.60;99.90
37896;DHT22;23733;53.254;10.430;2022-07-04T18:30:02;21.70;99.90
37896;DHT22;23733;53.254;10.430;2022-07-04T18:32:29;21.60;99.90
37896;DHT22;23733;53.254;10.430;2022-07-04T18:34:55;21.50;99.90
37896;DHT22;23733;53.254;10.430;2022-07-04T18:37:21;21.30;99.90
37896;DHT22;23733;53.254;10.430;2022-07-04T18:39:47;21.10;99.90
37896;DHT22;23733;53.254;10.430;2022-07-04T18:42:13;21.20;99.90
37896;DHT22;23733;53.254;10.430;2022-07-04T18:44:57;21.10;99.90
37896;DHT22;23733;53.254;10.430;2022-07-04T18:47:23;21.00;99.90
37896;DHT22;23733;53.254;10.430;2022-07-04T18:49:49;20.90;99.90
37896;DHT22;23733;53.254;10.430;2022-07-04T18:52:15;20.90;99.90
37896;DHT22;23733;53.254;10.430;2022-07-04T18:54:41;21.00;99.90
37896;DHT22;23733;53.254;10.430;2022-07-04T18:57:07;20.90;99.90
37896;DHT22;23733;53.254;10.430;2022-07-04T18:59:36;20.80;99.90
37896;DHT22;23733;53.254;10.430;2022-07-04T19:02:02;20.80;99.90
37896;DHT22;23733;53.254;10.430;2022-07-04T19:04:29;20.80;99.90
37896;DHT22;23733;53.254;10.430;2022-07-04T19:06:55;20.80;99.90
37896;DHT22;23733;53.254;10.430;2022-07-04T19:09:21;20.80;99.90
37896;DHT22;23733;53.254;10.430;2022-07-04T19:11:47;20.70;99.90
37896;DHT22;23733;53.254;10.430;2022-07-04T19:14:13;20.60;99.90
37896;DHT22;23733;53.254;10.430;2022-07-04T19:16:40;20.50;99.90
37896;DHT22;23733;53.254;10.430;2022-07-04T19:19:06;20.50;99.90
37896;DHT22;23733;53.254;10.430;2022-07-04T19:21:32;20.60;99.90
37896;DHT22;23733;53.254;10.430;2022-07-04T19:23:58;20.70;99.90
37896;DHT22;23733;53.254;10.430;2022-07-04T19:28:54;20.50;99.90
37896;DHT22;23733;53.254;10.430;2022-07-04T19:31:21;20.50;99.90
37896;DHT22;23733;53.254;10.430;2022-07-04T19:33:47;20.30;99.90
37896;DHT22;23733;53.254;10.430;2022-07-04T19:36:13;20.10;99.90
37896;DHT22;23733;53.254;10.430;2022-07-04T19:38:43;20.00;99.90
37896;DHT22;23733;53.254;10.430;2022-07-04T19:41:09;19.90;99.90
37896;DHT22;23733;53.254;10.430;2022-07-04T19:43:35;19.90;99.90
37896;DHT22;23733;53.254;10.430;2022-07-04T19:46:01;20.00;99.90
37896;DHT22;23733;53.254;10.430;2022-07-04T19:48:28;20.00;99.90
37896;DHT22;23733;53.254;10.430;2022-07-04T19:50:54;20.00;99.90
37896;DHT22;23733;53.254;10.430;2022-07-04T19:53:20;19.90;99.90
37896;DHT22;23733;53.254;10.430;2022-07-04T19:55:46;19.80;99.90
37896;DHT22;23733;53.254;10.430;2022-07-04T19:58:16;19.80;99.90
37896;DHT22;23733;53.254;10.430;2022-07-04T20:00:42;19.70;99.90
37896;DHT22;23733;53.254;10.430;2022-07-04T20:03:08;19.50;99.90
37896;DHT22;23733;53.254;10.430;2022-07-04T20:05:36;19.50;99.90
37896;DHT22;23733;53.254;10.430;2022-07-04T20:08:02;19.50;99.90
37896;DHT22;23733;53.254;10.430;2022-07-04T20:10:29;19.40;99.90
37896;DHT22;23733;53.254;10.430;2022-07-04T20:12:55;19.50;99.90
37896;DHT22;23733;53.254;10.430;2022-07-04T20:15:21;19.30;99.90
37896;DHT22;23733;53.254;10.430;2022-07-04T20:17:47;19.40;99.90
37896;DHT22;23733;53.254;10.430;2022-07-04T20:20:15;19.30;99.90
37896;DHT22;23733;53.254;10.430;2022-07-04T20:22:42;19.30;99.90
37896;DHT22;23733;53.254;10.430;2022-07-04T20:25:10;19.50;99.90
37896;DHT22;23733;53.254;10.430;2022-07-04T20:27:36;19.30;99.90
37896;DHT22;23733;53.254;10.430;2022-07-04T20:30:10;19.30;99.90
37896;DHT22;23733;53.254;10.430;2022-07-04T20:32:37;19.20;99.90
37896;DHT22;23733;53.254;10.430;2022-07-04T20:35:06;19.20;99.90
37896;DHT22;23733;53.254;10.430;2022-07-04T20:37:32;19.20;99.90
37896;DHT22;23733;53.254;10.430;2022-07-04T20:39:58;19.30;99.90
37896;DHT22;23733;53.254;10.430;2022-07-04T20:42:24;19.20;99.90
37896;DHT22;23733;53.254;10.430;2022-07-04T20:44:51;19.30;99.90
37896;DHT22;23733;53.254;10.430;2022-07-04T20:47:17;19.30;99.90
37896;DHT22;23733;53.254;10.430;2022-07-04T20:49:43;19.30;99.90
37896;DHT22;23733;53.254;10.430;2022-07-04T20:52:13;19.10;99.90
37896;DHT22;23733;53.254;10.430;2022-07-04T20:54:41;19.10;99.90
37896;DHT22;23733;53.254;10.430;2022-07-04T20:57:08;19.10;99.90
37896;DHT22;23733;53.254;10.430;2022-07-04T20:59:34;19.10;99.90
37896;DHT22;23733;53.254;10.430;2022-07-04T21:02:09;19.10;99.90
37896;DHT22;23733;53.254;10.430;2022-07-04T21:04:36;19.10;99.90
37896;DHT22;23733;53.254;10.430;2022-07-04T21:07:03;19.10;99.90
37896;DHT22;23733;53.254;10.430;2022-07-04T21:09:30;19.10;99.90
37896;DHT22;23733;53.254;10.430;2022-07-04T21:11:56;19.10;99.90
37896;DHT22;23733;53.254;10.430;2022-07-04T21:14:22;19.00;99.90
37896;DHT22;23733;53.254;10.430;2022-07-04T21:16:49;19.00;99.90
37896;DHT22;23733;53.254;10.430;2022-07-04T21:19:15;19.00;99.90
37896;DHT22;23733;53.254;10.430;2022-07-04T21:21:41;19.00;99.90
37896;DHT22;23733;53.254;10.430;2022-07-04T21:24:07;19.00;99.90